createdAt,value
2022-10-05T00:00:22.007Z,11.44
2022-10-05T00:01:22.007Z,11.42
2022-10-05T00:02:21.939Z,11.42
2022-10-05T00:03:21.951Z,11.39
2022-10-05T00:04:21.964Z,11.39
2022-10-05T00:05:21.944Z,11.38
2022-10-05T00:06:21.904Z,11.36
2022-10-05T00:07:21.872Z,11.36
2022-10-05T00:08:21.872Z,11.35
2022-10-05T00:09:21.898Z,11.35
2022-10-05T00:10:21.832Z,11.31
2022-10-05T00:11:21.837Z,11.33
2022-10-05T00:12:21.815Z,11.33
2022-10-05T00:13:21.827Z,11.33
2022-10-05T00:14:21.798Z,11.35
2022-10-05T00:15:21.776Z,11.35
2022-10-05T00:16:21.837Z,11.31
2022-10-05T00:17:21.738Z,11.31
2022-10-05T00:18:21.735Z,11.31
2022-10-05T00:19:21.720Z,11.30
2022-10-05T00:20:21.706Z,11.30
2022-10-05T00:21:21.760Z,11.30
2022-10-05T00:22:21.691Z,11.28
2022-10-05T00:23:21.664Z,11.28
2022-10-05T00:24:21.706Z,11.30
2022-10-05T00:25:21.636Z,11.30
2022-10-05T00:26:21.623Z,11.28
2022-10-05T00:27:21.602Z,11.24
2022-10-05T00:28:21.699Z,11.21
2022-10-05T00:29:21.584Z,11.19
2022-10-05T00:30:21.590Z,11.17
2022-10-05T00:31:21.595Z,11.19
2022-10-05T00:32:21.597Z,11.20
2022-10-05T00:33:21.533Z,11.20
2022-10-05T00:34:21.546Z,11.21
2022-10-05T00:35:21.550Z,11.23
2022-10-05T00:36:21.502Z,11.23
2022-10-05T00:37:21.533Z,11.21
2022-10-05T00:38:21.480Z,11.21
2022-10-05T00:39:21.495Z,11.20
2022-10-05T00:40:21.493Z,11.21
2022-10-05T00:41:21.457Z,11.23
2022-10-05T00:42:21.444Z,11.21
2022-10-05T00:43:21.479Z,11.23
2022-10-05T00:44:21.406Z,11.19
2022-10-05T00:45:21.401Z,11.23
2022-10-05T00:46:21.509Z,11.21
2022-10-05T00:47:21.386Z,11.19
2022-10-05T00:48:21.352Z,11.16
2022-10-05T00:49:21.338Z,11.12
2022-10-05T00:50:21.309Z,11.12
2022-10-05T00:51:21.296Z,11.09
2022-10-05T00:52:21.309Z,11.08
2022-10-05T00:53:21.271Z,11.11
2022-10-05T00:54:21.294Z,11.12
2022-10-05T00:55:21.299Z,11.13
2022-10-05T00:56:21.220Z,11.13
2022-10-05T00:57:21.215Z,11.13
2022-10-05T00:58:21.245Z,11.12
2022-10-05T00:59:21.189Z,11.11
2022-10-05T01:00:21.181Z,11.12
2022-10-05T01:01:21.239Z,11.09
2022-10-05T01:02:21.222Z,11.08
2022-10-05T01:03:21.170Z,11.09
2022-10-05T01:04:21.130Z,11.09
2022-10-05T01:05:21.191Z,11.09
2022-10-05T01:06:21.100Z,11.09
2022-10-05T01:07:21.088Z,11.08
2022-10-05T01:08:21.112Z,11.09
2022-10-05T01:09:21.061Z,11.08
2022-10-05T01:10:21.058Z,11.11
2022-10-05T01:11:21.030Z,11.11
2022-10-05T01:12:21.030Z,11.09
2022-10-05T01:13:21.026Z,11.09
2022-10-05T01:14:21.002Z,11.11
2022-10-05T01:15:20.996Z,11.09
2022-10-05T01:16:21.036Z,11.11
2022-10-05T01:17:20.977Z,11.11
2022-10-05T01:18:21.040Z,11.11
2022-10-05T01:19:20.932Z,11.12
2022-10-05T01:20:20.961Z,11.11
2022-10-05T01:21:20.956Z,11.11
2022-10-05T01:22:20.919Z,11.12
2022-10-05T01:23:20.937Z,11.12
2022-10-05T01:24:20.878Z,11.12
2022-10-05T01:25:20.861Z,11.11
2022-10-05T01:26:20.846Z,11.09
2022-10-05T01:27:20.852Z,11.08
2022-10-05T01:28:20.934Z,11.08
2022-10-05T01:29:20.799Z,11.09
2022-10-05T01:30:20.806Z,11.08
2022-10-05T01:31:20.933Z,11.09
2022-10-05T01:32:20.793Z,11.09
2022-10-05T01:33:20.761Z,11.09
2022-10-05T01:34:20.755Z,11.08
2022-10-05T01:35:20.759Z,11.08
2022-10-05T01:36:20.751Z,11.09
2022-10-05T01:37:20.766Z,11.08
2022-10-05T01:38:20.762Z,11.08
2022-10-05T01:39:20.693Z,11.06
2022-10-05T01:40:20.667Z,11.03
2022-10-05T01:41:20.637Z,11.03
2022-10-05T01:42:20.642Z,11.02
2022-10-05T01:43:20.669Z,11.02
2022-10-05T01:44:20.613Z,11.01
2022-10-05T01:45:20.596Z,10.99
2022-10-05T01:46:20.637Z,10.98
2022-10-05T01:47:20.560Z,10.95
2022-10-05T01:48:20.563Z,10.94
2022-10-05T01:49:20.572Z,10.94
2022-10-05T01:50:20.546Z,10.91
2022-10-05T01:51:20.525Z,10.90
2022-10-05T01:52:20.507Z,10.88
2022-10-05T01:53:20.510Z,10.87
2022-10-05T01:54:20.525Z,10.87
2022-10-05T01:55:20.495Z,10.87
2022-10-05T01:56:20.464Z,10.84
2022-10-05T01:57:20.453Z,10.83
2022-10-05T01:58:20.468Z,10.80
2022-10-05T01:59:20.411Z,10.78
2022-10-05T02:00:20.421Z,10.75
2022-10-05T02:01:20.495Z,10.75
2022-10-05T02:02:20.392Z,10.75
2022-10-05T02:03:20.416Z,10.73
2022-10-05T02:04:42.731Z,10.72
2022-10-05T02:05:21.428Z,10.73
2022-10-05T02:06:20.310Z,10.73
2022-10-05T02:07:20.322Z,10.75
2022-10-05T02:08:20.347Z,10.75
2022-10-05T02:09:20.278Z,10.72
2022-10-05T02:10:20.285Z,10.70
2022-10-05T02:11:20.261Z,10.69
2022-10-05T02:12:20.239Z,10.68
2022-10-05T02:13:20.237Z,10.66
2022-10-05T02:14:20.225Z,10.66
2022-10-05T02:15:20.267Z,10.65
2022-10-05T02:16:20.316Z,10.63
2022-10-05T02:17:20.220Z,10.62
2022-10-05T02:18:20.149Z,10.60
2022-10-05T02:19:20.175Z,10.58
2022-10-05T02:20:20.180Z,10.60
2022-10-05T02:21:20.113Z,10.57
2022-10-05T02:22:20.099Z,10.55
2022-10-05T02:23:20.101Z,10.54
2022-10-05T02:24:20.075Z,10.54
2022-10-05T02:25:20.117Z,10.54
2022-10-05T02:26:20.076Z,10.52
2022-10-05T02:27:20.048Z,10.54
2022-10-05T02:28:20.116Z,10.51
2022-10-05T02:29:20.014Z,10.51
2022-10-05T02:30:20.008Z,10.51
2022-10-05T02:31:20.042Z,10.52
2022-10-05T02:32:19.964Z,10.51
2022-10-05T02:33:19.972Z,10.51
2022-10-05T02:34:19.956Z,10.49
2022-10-05T02:35:19.966Z,10.49
2022-10-05T02:36:19.923Z,10.47
2022-10-05T02:37:19.906Z,10.46
2022-10-05T02:38:19.893Z,10.46
2022-10-05T02:39:19.885Z,10.44
2022-10-05T02:40:19.899Z,10.47
2022-10-05T02:41:19.879Z,10.46
2022-10-05T02:42:19.839Z,10.44
2022-10-05T02:43:19.848Z,10.44
2022-10-05T02:44:19.801Z,10.43
2022-10-05T02:45:19.793Z,10.39
2022-10-05T02:46:19.844Z,10.39
2022-10-05T02:47:19.779Z,10.39
2022-10-05T02:48:19.849Z,10.39
2022-10-05T02:49:19.743Z,10.43
2022-10-05T02:50:19.801Z,10.44
2022-10-05T02:51:19.703Z,10.43
2022-10-05T02:52:19.728Z,10.43
2022-10-05T02:53:19.704Z,10.43
2022-10-05T02:54:19.708Z,10.42
2022-10-05T02:55:19.686Z,10.43
2022-10-05T02:56:19.640Z,10.42
2022-10-05T02:57:19.629Z,10.42
2022-10-05T02:58:19.629Z,10.42
2022-10-05T02:59:19.620Z,10.43
2022-10-05T03:00:19.616Z,10.42
2022-10-05T03:01:19.659Z,10.42
2022-10-05T03:02:19.632Z,10.39
2022-10-05T03:03:19.599Z,10.42
2022-10-05T03:04:19.537Z,10.42
2022-10-05T03:05:19.554Z,10.43
2022-10-05T03:06:19.501Z,10.43
2022-10-05T03:07:19.521Z,10.46
2022-10-05T03:08:19.494Z,10.47
2022-10-05T03:09:19.477Z,10.49
2022-10-05T03:10:19.460Z,10.49
2022-10-05T03:11:19.435Z,10.51
2022-10-05T03:12:19.439Z,10.49
2022-10-05T03:13:19.429Z,10.49
2022-10-05T03:14:19.398Z,10.49
2022-10-05T03:15:19.407Z,10.49
2022-10-05T03:16:19.461Z,10.49
2022-10-05T03:17:19.398Z,10.52
2022-10-05T03:18:19.387Z,10.55
2022-10-05T03:19:19.358Z,10.55
2022-10-05T03:20:19.352Z,10.57
2022-10-05T03:21:19.337Z,10.57
2022-10-05T03:22:19.300Z,10.62
2022-10-05T03:23:19.291Z,10.60
2022-10-05T03:24:19.275Z,10.63
2022-10-05T03:25:19.257Z,10.62
2022-10-05T03:26:19.283Z,10.63
2022-10-05T03:27:19.241Z,10.63
2022-10-05T03:28:19.273Z,10.65
2022-10-05T03:29:19.222Z,10.65
2022-10-05T03:30:19.190Z,10.65
2022-10-05T03:31:19.327Z,10.66
2022-10-05T03:32:19.176Z,10.68
2022-10-05T03:33:19.155Z,10.66
2022-10-05T03:34:19.215Z,10.68
2022-10-05T03:35:19.135Z,10.69
2022-10-05T03:36:19.128Z,10.70
2022-10-05T03:37:19.138Z,10.72
2022-10-05T03:38:19.103Z,10.72
2022-10-05T03:39:19.104Z,10.73
2022-10-05T03:40:19.124Z,10.75
2022-10-05T03:41:19.055Z,10.75
2022-10-05T03:42:19.035Z,10.73
2022-10-05T03:43:19.058Z,10.75
2022-10-05T03:44:19.044Z,10.73
2022-10-05T03:45:19.042Z,10.76
2022-10-05T03:46:19.019Z,10.78
2022-10-05T03:47:18.967Z,10.76
2022-10-05T03:48:19.011Z,10.78
2022-10-05T03:49:18.964Z,10.76
2022-10-05T03:50:18.930Z,10.73
2022-10-05T03:51:19.068Z,10.75
2022-10-05T03:52:19.782Z,10.73
2022-10-05T03:53:18.932Z,10.75
2022-10-05T03:54:18.907Z,10.75
2022-10-05T03:55:18.867Z,10.73
2022-10-05T03:56:18.862Z,10.70
2022-10-05T03:57:18.847Z,10.72
2022-10-05T03:58:18.854Z,10.70
2022-10-05T03:59:18.826Z,10.72
2022-10-05T04:00:18.799Z,10.72
2022-10-05T04:01:18.848Z,10.72
2022-10-05T04:02:18.815Z,10.73
2022-10-05T04:03:19.046Z,10.73
2022-10-05T04:04:18.771Z,10.75
2022-10-05T04:05:18.734Z,10.73
2022-10-05T04:06:18.720Z,10.76
2022-10-05T04:07:18.726Z,10.78
2022-10-05T04:08:18.704Z,10.78
2022-10-05T04:09:18.768Z,10.78
2022-10-05T04:10:18.706Z,10.76
2022-10-05T04:11:18.679Z,10.76
2022-10-05T04:12:18.653Z,10.76
2022-10-05T04:13:18.638Z,10.75
2022-10-05T04:14:18.676Z,10.75
2022-10-05T04:15:19.153Z,10.76
2022-10-05T04:16:18.643Z,10.76
2022-10-05T04:17:18.596Z,10.75
2022-10-05T04:18:18.642Z,10.73
2022-10-05T04:19:18.556Z,10.73
2022-10-05T04:20:18.541Z,10.75
2022-10-05T04:21:22.805Z,10.73
2022-10-05T04:22:19.527Z,10.73
2022-10-05T04:23:18.514Z,10.75
2022-10-05T04:24:18.510Z,10.75
2022-10-05T04:25:18.473Z,10.76
2022-10-05T04:26:18.473Z,10.75
2022-10-05T04:27:18.451Z,10.73
2022-10-05T04:28:19.172Z,10.70
2022-10-05T04:29:18.424Z,10.73
2022-10-05T04:30:18.412Z,10.72
2022-10-05T04:31:18.487Z,10.72
2022-10-05T04:32:18.384Z,10.72
2022-10-05T04:33:18.415Z,10.72
2022-10-05T04:34:18.418Z,10.72
2022-10-05T04:35:18.360Z,10.72
2022-10-05T04:36:18.325Z,10.70
2022-10-05T04:37:18.330Z,10.70
2022-10-05T04:38:18.336Z,10.72
2022-10-05T04:39:18.408Z,10.69
2022-10-05T04:40:18.283Z,10.70
2022-10-05T04:41:18.280Z,10.70
2022-10-05T04:42:18.297Z,10.69
2022-10-05T04:43:18.274Z,10.68
2022-10-05T04:44:18.235Z,10.69
2022-10-05T04:45:18.233Z,10.69
2022-10-05T04:46:18.248Z,10.68
2022-10-05T04:47:18.194Z,10.68
2022-10-05T04:48:18.174Z,10.68
2022-10-05T04:49:18.228Z,10.68
2022-10-05T04:50:18.151Z,10.65
2022-10-05T04:51:18.149Z,10.66
2022-10-05T04:52:18.148Z,10.66
2022-10-05T04:53:18.102Z,10.63
2022-10-05T04:54:18.181Z,10.63
2022-10-05T04:55:18.210Z,10.63
2022-10-05T04:56:18.152Z,10.63
2022-10-05T04:57:19.143Z,10.62
2022-10-05T04:58:18.039Z,10.62
2022-10-05T04:59:18.041Z,10.63
2022-10-05T05:00:18.031Z,10.65
2022-10-05T05:01:18.155Z,10.63
2022-10-05T05:02:18.022Z,10.62
2022-10-05T05:03:17.994Z,10.63
2022-10-05T05:04:18.068Z,10.60
2022-10-05T05:05:17.985Z,10.58
2022-10-05T05:06:18.605Z,10.60
2022-10-05T05:07:18.077Z,10.65
2022-10-05T05:08:17.929Z,10.63
2022-10-05T05:09:17.979Z,10.66
2022-10-05T05:10:17.921Z,10.66
2022-10-05T05:11:21.153Z,10.70
2022-10-05T05:12:18.903Z,10.72
2022-10-05T05:13:17.873Z,10.76
2022-10-05T05:14:17.843Z,10.81
2022-10-05T05:15:17.860Z,10.83
2022-10-05T05:16:17.846Z,10.81
2022-10-05T05:17:17.838Z,10.80
2022-10-05T05:18:17.886Z,10.80
2022-10-05T05:19:17.785Z,10.78
2022-10-05T05:20:17.775Z,10.80
2022-10-05T05:21:17.764Z,10.78
2022-10-05T05:22:17.746Z,10.78
2022-10-05T05:23:17.720Z,10.81
2022-10-05T05:24:17.708Z,11.09
2022-10-05T05:25:17.728Z,11.28
2022-10-05T05:26:17.775Z,11.23
2022-10-05T05:27:24.688Z,11.11
2022-10-05T05:28:17.734Z,11.03
2022-10-05T05:29:18.369Z,10.93
2022-10-05T05:30:17.604Z,10.87
2022-10-05T05:31:17.674Z,10.86
2022-10-05T05:32:17.596Z,10.83
2022-10-05T05:33:17.593Z,10.81
2022-10-05T05:34:17.595Z,10.81
2022-10-05T05:35:17.553Z,10.78
2022-10-05T05:36:22.865Z,10.80
2022-10-05T05:37:18.563Z,10.80
2022-10-05T05:38:17.534Z,10.80
2022-10-05T05:39:17.585Z,10.78
2022-10-05T05:40:17.545Z,10.76
2022-10-05T05:41:18.226Z,10.81
2022-10-05T05:42:18.350Z,10.83
2022-10-05T05:43:17.466Z,10.83
2022-10-05T05:44:18.432Z,10.81
2022-10-05T05:45:17.458Z,10.80
2022-10-05T05:46:18.022Z,10.81
2022-10-05T05:47:17.469Z,10.83
2022-10-05T05:48:17.401Z,10.83
2022-10-05T05:49:17.402Z,10.86
2022-10-05T05:50:17.352Z,10.87
2022-10-05T05:51:17.345Z,10.87
2022-10-05T05:52:17.364Z,10.88
2022-10-05T05:53:17.322Z,10.90
2022-10-05T05:54:17.320Z,10.90
2022-10-05T05:55:17.306Z,10.93
2022-10-05T05:56:17.302Z,10.94
2022-10-05T05:57:17.271Z,10.95
2022-10-05T05:58:17.280Z,11.01
2022-10-05T05:59:17.259Z,11.03
2022-10-05T06:00:17.426Z,11.05
2022-10-05T06:01:32.328Z,11.06
2022-10-05T06:02:18.328Z,11.08
2022-10-05T06:03:17.319Z,11.09
2022-10-05T06:04:17.181Z,11.08
2022-10-05T06:05:17.210Z,11.09
2022-10-05T06:06:17.169Z,11.12
2022-10-05T06:07:17.149Z,11.13
2022-10-05T06:08:17.144Z,11.13
2022-10-05T06:09:17.119Z,11.16
2022-10-05T06:10:17.203Z,11.16
2022-10-05T06:11:17.088Z,11.17
2022-10-05T06:12:17.078Z,11.19
2022-10-05T06:13:17.049Z,11.19
2022-10-05T06:14:17.058Z,11.20
2022-10-05T06:15:17.028Z,11.23
2022-10-05T06:16:17.075Z,11.26
2022-10-05T06:17:17.008Z,11.26
2022-10-05T06:18:16.986Z,11.30
2022-10-05T06:19:16.986Z,11.31
2022-10-05T06:20:16.966Z,11.33
2022-10-05T06:21:16.982Z,11.36
2022-10-05T06:22:16.945Z,11.38
2022-10-05T06:23:16.930Z,11.41
2022-10-05T06:24:16.917Z,11.44
2022-10-05T06:25:16.940Z,11.46
2022-10-05T06:26:16.889Z,11.49
2022-10-05T06:27:16.874Z,11.51
2022-10-05T06:28:16.895Z,11.54
2022-10-05T06:29:16.862Z,11.56
2022-10-05T06:30:16.843Z,11.57
2022-10-05T06:31:16.897Z,11.62
2022-10-05T06:32:16.816Z,11.62
2022-10-05T06:33:16.792Z,11.63
2022-10-05T06:34:16.791Z,11.64
2022-10-05T06:35:16.764Z,11.67
2022-10-05T06:36:16.764Z,11.67
2022-10-05T06:37:16.754Z,11.82
2022-10-05T06:38:16.733Z,11.94
2022-10-05T06:39:16.724Z,11.93
2022-10-05T06:40:16.713Z,11.93
2022-10-05T06:41:16.714Z,11.97
2022-10-05T06:42:16.698Z,12.07
2022-10-05T06:43:16.666Z,12.23
2022-10-05T06:44:16.662Z,12.31
2022-10-05T06:45:16.632Z,12.38
2022-10-05T06:46:16.877Z,12.54
2022-10-05T06:47:16.659Z,12.55
2022-10-05T06:48:16.602Z,12.54
2022-10-05T06:49:16.710Z,12.55
2022-10-05T06:50:16.583Z,12.55
2022-10-05T06:51:16.560Z,12.41
2022-10-05T06:52:16.551Z,12.34
2022-10-05T06:53:16.530Z,12.29
2022-10-05T06:54:16.554Z,12.25
2022-10-05T06:55:16.656Z,12.23
2022-10-05T06:56:16.497Z,12.30
2022-10-05T06:57:16.489Z,12.33
2022-10-05T06:58:16.470Z,12.31
2022-10-05T06:59:16.470Z,12.36
2022-10-05T07:00:16.460Z,12.34
2022-10-05T07:01:16.552Z,12.36
2022-10-05T07:02:16.452Z,12.41
2022-10-05T07:03:16.451Z,12.38
2022-10-05T07:04:16.410Z,12.43
2022-10-05T07:05:16.482Z,12.41
2022-10-05T07:06:16.360Z,12.43
2022-10-05T07:07:16.348Z,12.38
2022-10-05T07:08:16.351Z,12.36
2022-10-05T07:09:16.357Z,12.37
2022-10-05T07:10:16.535Z,12.37
2022-10-05T07:11:16.297Z,12.38
2022-10-05T07:12:16.309Z,12.37
2022-10-05T07:13:16.277Z,12.33
2022-10-05T07:14:16.312Z,12.36
2022-10-05T07:15:16.262Z,12.36
2022-10-05T07:16:16.272Z,12.41
2022-10-05T07:17:16.216Z,12.37
2022-10-05T07:18:16.215Z,12.37
2022-10-05T07:19:16.239Z,12.38
2022-10-05T07:20:16.206Z,12.40
2022-10-05T07:21:16.176Z,12.43
2022-10-05T07:22:16.457Z,12.43
2022-10-05T07:23:16.148Z,12.43
2022-10-05T07:24:16.156Z,12.44
2022-10-05T07:25:16.125Z,12.46
2022-10-05T07:26:16.555Z,12.46
2022-10-05T07:27:16.108Z,12.48
2022-10-05T07:28:16.130Z,12.49
2022-10-05T07:29:16.072Z,12.51
2022-10-05T07:30:16.076Z,12.51
2022-10-05T07:31:16.114Z,12.54
2022-10-05T07:32:16.038Z,12.56
2022-10-05T07:33:16.018Z,12.59
2022-10-05T07:34:16.003Z,12.66
2022-10-05T07:35:15.994Z,12.66
2022-10-05T07:36:16.035Z,12.74
2022-10-05T07:37:16.030Z,12.77
2022-10-05T07:38:15.971Z,12.76
2022-10-05T07:39:15.932Z,12.77
2022-10-05T07:40:16.000Z,12.84
2022-10-05T07:41:15.894Z,12.89
2022-10-05T07:42:15.902Z,12.96
2022-10-05T07:43:15.902Z,12.96
2022-10-05T07:44:15.881Z,12.99
2022-10-05T07:45:15.853Z,13.04
2022-10-05T07:46:15.939Z,13.10
2022-10-05T07:47:15.845Z,13.12
2022-10-05T07:48:15.842Z,13.10
2022-10-05T07:49:15.804Z,13.14
2022-10-05T07:50:15.878Z,13.14
2022-10-05T07:51:15.812Z,13.13
2022-10-05T07:52:15.760Z,13.13
2022-10-05T07:53:15.749Z,13.12
2022-10-05T07:54:15.745Z,13.14
2022-10-05T07:55:15.759Z,13.19
2022-10-05T07:56:15.720Z,13.19
2022-10-05T07:57:15.708Z,13.22
2022-10-05T07:58:15.751Z,13.25
2022-10-05T07:59:15.689Z,13.32
2022-10-05T08:00:15.671Z,13.38
2022-10-05T08:01:15.633Z,13.41
2022-10-05T08:02:15.751Z,13.43
2022-10-05T08:03:15.640Z,13.46
2022-10-05T08:04:15.618Z,13.53
2022-10-05T08:05:15.586Z,13.61
2022-10-05T08:06:15.589Z,13.66
2022-10-05T08:07:15.611Z,13.69
2022-10-05T08:08:18.117Z,13.69
2022-10-05T08:09:15.540Z,13.73
2022-10-05T08:10:15.529Z,13.73
2022-10-05T08:11:15.516Z,13.73
2022-10-05T08:12:15.502Z,13.79
2022-10-05T08:13:15.478Z,13.80
2022-10-05T08:14:15.509Z,13.83
2022-10-05T08:15:15.460Z,13.87
2022-10-05T08:16:15.531Z,13.93
2022-10-05T08:17:15.437Z,13.91
2022-10-05T08:18:15.538Z,13.94
2022-10-05T08:19:15.396Z,13.99
2022-10-05T08:20:15.418Z,14.01
2022-10-05T08:21:15.395Z,14.05
2022-10-05T08:22:15.388Z,14.09
2022-10-05T08:23:15.357Z,14.12
2022-10-05T08:24:15.367Z,14.09
2022-10-05T08:25:15.330Z,14.11
2022-10-05T08:26:15.428Z,14.17
2022-10-05T08:27:15.325Z,14.20
2022-10-05T08:28:15.342Z,14.26
2022-10-05T08:29:15.375Z,14.30
2022-10-05T08:30:15.398Z,14.35
2022-10-05T08:31:15.305Z,14.36
2022-10-05T08:32:15.255Z,14.38
2022-10-05T08:33:15.216Z,14.35
2022-10-05T08:34:15.227Z,14.36
2022-10-05T08:35:15.203Z,14.42
2022-10-05T08:36:15.217Z,14.44
2022-10-05T08:37:15.171Z,14.46
2022-10-05T08:38:15.194Z,14.46
2022-10-05T08:39:15.154Z,14.44
2022-10-05T08:40:15.133Z,14.39
2022-10-05T08:41:15.136Z,14.35
2022-10-05T08:42:15.114Z,14.36
2022-10-05T08:43:15.095Z,14.39
2022-10-05T08:45:25.679Z,14.42
2022-10-05T08:46:25.729Z,14.45
2022-10-05T08:47:26.355Z,14.52
2022-10-05T08:48:25.612Z,14.56
2022-10-05T08:49:25.610Z,14.59
2022-10-05T08:50:25.592Z,14.63
2022-10-05T08:51:25.576Z,14.67
2022-10-05T08:52:25.578Z,14.69
2022-10-05T08:53:25.552Z,14.71
2022-10-05T08:54:25.529Z,14.72
2022-10-05T08:55:25.517Z,14.74
2022-10-05T08:56:28.762Z,14.82
2022-10-05T08:57:25.523Z,14.85
2022-10-05T08:58:25.476Z,14.87
2022-10-05T08:59:25.466Z,14.94
2022-10-05T09:00:25.441Z,15.00
2022-10-05T09:01:25.491Z,15.05
2022-10-05T09:02:25.484Z,15.03
2022-10-05T09:03:25.414Z,15.04
2022-10-05T09:04:25.415Z,15.03
2022-10-05T09:05:25.409Z,15.05
2022-10-05T09:06:25.374Z,15.11
2022-10-05T09:07:25.386Z,15.18
2022-10-05T09:08:25.346Z,15.18
2022-10-05T09:09:25.335Z,15.19
2022-10-05T09:10:25.326Z,15.19
2022-10-05T09:11:25.308Z,15.22
2022-10-05T09:12:25.302Z,15.27
2022-10-05T09:13:25.304Z,15.34
2022-10-05T09:14:25.275Z,15.35
2022-10-05T09:15:26.511Z,15.40
2022-10-05T09:16:25.363Z,15.43
2022-10-05T09:17:25.262Z,15.48
2022-10-05T09:18:25.225Z,15.46
2022-10-05T09:19:25.213Z,15.48
2022-10-05T09:20:25.197Z,15.51
2022-10-05T09:21:25.190Z,15.55
2022-10-05T09:22:25.220Z,15.59
2022-10-05T09:23:25.150Z,15.67
2022-10-05T09:24:26.046Z,15.70
2022-10-05T09:25:25.136Z,15.77
2022-10-05T09:26:25.113Z,15.84
2022-10-05T09:27:25.591Z,15.88
2022-10-05T09:28:25.184Z,15.92
2022-10-05T09:29:25.123Z,15.89
2022-10-05T09:30:25.073Z,15.81
2022-10-05T09:31:25.125Z,15.81
2022-10-05T09:32:25.070Z,15.78
2022-10-05T09:33:25.091Z,15.77
2022-10-05T09:34:25.016Z,15.76
2022-10-05T09:35:25.013Z,15.78
2022-10-05T09:36:25.006Z,15.84
2022-10-05T09:37:24.986Z,15.85
2022-10-05T09:38:24.966Z,15.88
2022-10-05T09:39:24.962Z,15.86
2022-10-05T09:40:24.932Z,15.85
2022-10-05T09:41:25.007Z,15.80
2022-10-05T09:42:25.149Z,15.71
2022-10-05T09:43:24.903Z,15.68
2022-10-05T09:44:25.019Z,15.62
2022-10-05T09:45:24.878Z,15.58
2022-10-05T09:46:24.903Z,15.60
2022-10-05T09:47:24.872Z,15.66
2022-10-05T09:48:24.842Z,15.71
2022-10-05T09:49:24.821Z,15.77
2022-10-05T09:50:24.822Z,15.81
2022-10-05T09:51:24.802Z,15.81
2022-10-05T09:52:24.821Z,15.80
2022-10-05T09:53:24.787Z,15.81
2022-10-05T09:54:24.753Z,15.84
2022-10-05T09:55:24.758Z,15.85
2022-10-05T09:56:24.754Z,15.86
2022-10-05T09:57:24.739Z,15.84
2022-10-05T09:58:24.722Z,15.81
2022-10-05T09:59:24.710Z,15.78
2022-10-05T10:00:24.699Z,15.74
2022-10-05T10:01:39.956Z,15.78
2022-10-05T10:02:25.807Z,15.84
2022-10-05T10:03:24.741Z,15.81
2022-10-05T10:04:24.700Z,15.86
2022-10-05T10:05:24.641Z,15.86
2022-10-05T10:06:24.605Z,15.89
2022-10-05T10:07:24.589Z,15.92
2022-10-05T10:08:24.569Z,15.99
2022-10-05T10:09:24.567Z,15.98
2022-10-05T10:10:24.562Z,15.99
2022-10-05T10:11:24.546Z,15.99
2022-10-05T10:12:24.588Z,15.98
2022-10-05T10:13:25.587Z,15.98
2022-10-05T10:14:24.505Z,15.99
2022-10-05T10:15:24.499Z,16.03
2022-10-05T10:16:24.607Z,16.04
2022-10-05T10:17:24.531Z,16.07
2022-10-05T10:18:24.458Z,16.08
2022-10-05T10:19:24.459Z,16.07
2022-10-05T10:20:24.435Z,16.06
2022-10-05T10:21:24.440Z,16.08
2022-10-05T10:22:24.399Z,16.13
2022-10-05T10:23:24.419Z,16.16
2022-10-05T10:24:24.368Z,16.16
2022-10-05T10:25:24.372Z,16.13
2022-10-05T10:26:24.339Z,16.11
2022-10-05T10:27:24.351Z,16.10
2022-10-05T10:28:24.411Z,16.13
2022-10-05T10:29:24.396Z,16.13
2022-10-05T10:30:26.380Z,16.14
2022-10-05T10:31:24.353Z,16.18
2022-10-05T10:32:24.267Z,16.25
2022-10-05T10:33:24.269Z,16.27
2022-10-05T10:34:24.273Z,16.29
2022-10-05T10:35:24.365Z,16.33
2022-10-05T10:36:24.248Z,16.37
2022-10-05T10:37:24.221Z,16.37
2022-10-05T10:38:24.233Z,16.42
2022-10-05T10:39:24.187Z,16.45
2022-10-05T10:40:24.186Z,16.45
2022-10-05T10:41:24.163Z,16.50
2022-10-05T10:42:26.152Z,16.48
2022-10-05T10:43:24.147Z,16.50
2022-10-05T10:44:24.116Z,16.50
2022-10-05T10:45:24.108Z,16.51
2022-10-05T10:46:24.195Z,16.48
2022-10-05T10:47:24.083Z,16.48
2022-10-05T10:48:24.085Z,16.50
2022-10-05T10:49:24.048Z,16.54
2022-10-05T10:50:24.063Z,16.57
2022-10-05T10:51:24.024Z,16.65
2022-10-05T10:52:24.035Z,16.69
2022-10-05T10:53:24.006Z,16.72
2022-10-05T10:54:23.990Z,16.73
2022-10-05T10:55:23.967Z,16.78
2022-10-05T10:56:23.990Z,16.85
2022-10-05T10:57:23.964Z,16.92
2022-10-05T10:58:24.669Z,16.96
2022-10-05T10:59:26.596Z,16.96
2022-10-05T11:00:24.975Z,16.95
2022-10-05T11:01:23.955Z,17.02
2022-10-05T11:02:23.947Z,17.10
2022-10-05T11:03:23.890Z,17.20
2022-10-05T11:04:24.335Z,17.30
2022-10-05T11:05:23.834Z,17.39
2022-10-05T11:06:23.826Z,17.42
2022-10-05T11:07:23.835Z,17.46
2022-10-05T11:08:23.796Z,17.49
2022-10-05T11:09:23.800Z,17.54
2022-10-05T11:10:23.794Z,17.57
2022-10-05T11:11:23.767Z,17.54
2022-10-05T11:12:23.753Z,17.58
2022-10-05T11:13:23.748Z,17.68
2022-10-05T11:14:23.743Z,17.76
2022-10-05T11:15:23.720Z,17.80
2022-10-05T11:16:23.730Z,17.86
2022-10-05T11:17:23.692Z,17.91
2022-10-05T11:18:23.719Z,17.99
2022-10-05T11:19:35.083Z,18.01
2022-10-05T11:20:24.692Z,17.99
2022-10-05T11:21:23.630Z,18.01
2022-10-05T11:22:23.642Z,18.05
2022-10-05T11:23:23.619Z,18.04
2022-10-05T11:24:23.610Z,18.05
2022-10-05T11:25:23.617Z,18.05
2022-10-05T11:26:23.613Z,18.02
2022-10-05T11:27:30.592Z,18.04
2022-10-05T11:28:23.639Z,18.07
2022-10-05T11:29:23.539Z,18.10
2022-10-05T11:30:23.571Z,18.13
2022-10-05T11:31:23.579Z,18.19
2022-10-05T11:32:23.508Z,18.25
2022-10-05T11:33:23.500Z,18.20
2022-10-05T11:34:23.477Z,18.23
2022-10-05T11:35:23.458Z,18.31
2022-10-05T11:36:23.451Z,18.34
2022-10-05T11:37:23.463Z,18.44
2022-10-05T11:38:23.445Z,18.49
2022-10-05T11:39:23.404Z,18.54
2022-10-05T11:40:23.423Z,18.60
2022-10-05T11:41:23.411Z,18.51
2022-10-05T11:42:23.418Z,18.42
2022-10-05T11:43:23.366Z,18.35
2022-10-05T11:44:23.345Z,18.28
2022-10-05T11:45:23.366Z,18.29
2022-10-05T11:46:23.405Z,18.29
2022-10-05T11:47:23.345Z,18.29
2022-10-05T11:48:23.332Z,18.23
2022-10-05T11:49:23.335Z,18.20
2022-10-05T11:50:23.780Z,18.23
2022-10-05T11:51:28.484Z,18.21
2022-10-05T11:52:23.930Z,18.20
2022-10-05T11:53:23.967Z,18.21
2022-10-05T11:54:24.007Z,18.20
2022-10-05T11:55:23.916Z,18.21
2022-10-05T11:56:23.260Z,18.21
2022-10-05T11:57:23.456Z,18.25
2022-10-05T11:58:24.145Z,18.23
2022-10-05T11:59:24.154Z,18.25
2022-10-05T12:00:25.239Z,18.26
2022-10-05T12:01:24.297Z,18.25
2022-10-05T12:02:23.259Z,18.26
2022-10-05T12:03:24.332Z,18.34
2022-10-05T12:04:24.156Z,18.36
2022-10-05T12:05:24.604Z,18.38
2022-10-05T12:06:23.155Z,18.35
2022-10-05T12:07:23.068Z,18.41
2022-10-05T12:08:23.923Z,18.47
2022-10-05T12:09:23.168Z,18.51
2022-10-05T12:10:24.885Z,18.54
2022-10-05T12:11:23.257Z,18.59
2022-10-05T12:12:23.294Z,18.64
2022-10-05T12:13:22.960Z,18.65
2022-10-05T12:14:23.384Z,18.66
2022-10-05T12:15:22.941Z,18.68
2022-10-05T12:16:22.972Z,18.68
2022-10-05T12:17:23.060Z,18.69
2022-10-05T12:18:23.559Z,18.74
2022-10-05T12:19:22.918Z,18.78
2022-10-05T12:20:22.879Z,18.84
2022-10-05T12:21:23.681Z,18.91
2022-10-05T12:22:23.629Z,18.93
2022-10-05T12:23:22.978Z,18.99
2022-10-05T12:24:26.868Z,19.05
2022-10-05T12:25:22.849Z,19.07
2022-10-05T12:26:23.619Z,19.12
2022-10-05T12:27:22.856Z,19.17
2022-10-05T12:28:23.815Z,19.20
2022-10-05T12:29:22.800Z,19.23
2022-10-05T12:30:22.779Z,19.27
2022-10-05T12:31:22.870Z,19.28
2022-10-05T12:32:22.737Z,19.28
2022-10-05T12:33:22.740Z,19.25
2022-10-05T12:34:22.759Z,19.28
2022-10-05T12:35:36.570Z,19.31
2022-10-05T12:36:31.888Z,19.28
2022-10-05T12:37:23.686Z,19.31
2022-10-05T12:38:22.760Z,19.31
2022-10-05T12:39:22.871Z,19.34
2022-10-05T12:40:22.816Z,19.35
2022-10-05T12:41:23.146Z,19.39
2022-10-05T12:42:22.707Z,19.40
2022-10-05T12:43:22.660Z,19.40
2022-10-05T12:44:22.749Z,19.39
2022-10-05T12:45:22.670Z,19.40
2022-10-05T12:46:22.574Z,19.42
2022-10-05T12:47:22.579Z,19.43
2022-10-05T12:48:22.878Z,19.40
2022-10-05T12:49:22.519Z,19.34
2022-10-05T12:50:22.971Z,19.34
2022-10-05T12:51:22.540Z,19.32
2022-10-05T12:52:23.958Z,19.32
2022-10-05T12:53:22.767Z,19.30